This is the latest recevied weather packets stored in our database for station/object W8BS. If no packets are shown the sender has not sent any weather packets the latest 1 day(s).
| Time | Temp. | Humidity | Pressure | Rain* | Wind** | Luminosity | Snow |
|---|---|---|---|---|---|---|---|
| 1778022246 | 20° C | 50% | 1009.7 hPa | 0 mm | 0.89 m/s, 201° | 31 W/m² | - |
| 1778021942 | 20.56° C | 49% | 1009.6 hPa | 0 mm | 0 m/s | 33 W/m² | - |
| 1778021640 | 20.56° C | 49% | 1009.6 hPa | 0 mm | 1.34 m/s, 209° | 41 W/m² | - |
| 1778021335 | 20.56° C | 49% | 1009.5 hPa | 0 mm | 0.45 m/s, 254° | 49 W/m² | - |
| 1778021033 | 20.56° C | 49% | 1009.6 hPa | 0 mm | 0.45 m/s, 188° | 52 W/m² | - |
| 1778020729 | 20.56° C | 49% | 1009.7 hPa | 0 mm | 0.45 m/s, 191° | 54 W/m² | - |
| 1778020426 | 20.56° C | 48% | 1009.9 hPa | 0 mm | 0.45 m/s, 195° | 75 W/m² | - |
| 1778020122 | 20.56° C | 49% | 1009.7 hPa | 0 mm | 0.89 m/s, 193° | 98 W/m² | - |
| 1778019818 | 21.11° C | 48% | 1010 hPa | 0 mm | 0.45 m/s, 191° | 96 W/m² | - |
| 1778019516 | 21.11° C | 47% | 1010 hPa | 0 mm | 0.89 m/s, 191° | 110 W/m² | - |
| 1778019212 | 21.11° C | 47% | 1010.1 hPa | 0 mm | 1.34 m/s, 223° | 107 W/m² | - |
| 1778018909 | 21.11° C | 47% | 1010.1 hPa | 0 mm | 0.45 m/s, 178° | 130 W/m² | - |
| 1778018606 | 21.11° C | 46% | 1010.1 hPa | 0 mm | 1.34 m/s, 108° | 145 W/m² | - |
| 1778018304 | 21.67° C | 46% | 1010.3 hPa | 0 mm | 0.89 m/s, 212° | 175 W/m² | - |
| 1778018002 | 21.11° C | 47% | 1010.1 hPa | 0 mm | 0.89 m/s, 198° | 152 W/m² | - |
| 1778017700 | 21.11° C | 47% | 1010.3 hPa | 0 mm | 1.34 m/s, 212° | 130 W/m² | - |
| 1778017397 | 21.67° C | 46% | 1010.2 hPa | 0 mm | 1.79 m/s, 229° | 156 W/m² | - |
| 1778017094 | 21.67° C | 46% | 1010.1 hPa | 0 mm | 1.79 m/s, 221° | 161 W/m² | - |
| 1778016792 | 21.67° C | 46% | 1010.2 hPa | 0 mm | 1.34 m/s, 244° | 145 W/m² | - |
| 1778016487 | 22.22° C | 45% | 1010.1 hPa | 0 mm | 1.34 m/s, 195° | 200 W/m² | - |
| 1778016185 | 22.78° C | 46% | 1010.2 hPa | 0 mm | 0 m/s | 216 W/m² | - |
| 1778015881 | 22.78° C | 44% | 1009.9 hPa | 0 mm | 1.79 m/s, 192° | 325 W/m² | - |
| 1778015579 | 22.78° C | 44% | 1010.1 hPa | 0 mm | 0.45 m/s, 199° | 391 W/m² | - |
| 1778015275 | 22.78° C | 46% | 1010.2 hPa | 0 mm | 1.79 m/s, 234° | 413 W/m² | - |
| 1778014972 | 22.78° C | 47% | 1010.1 hPa | 0 mm | 0.45 m/s, 270° | 376 W/m² | - |
* Rain latest hour (hover to see other rain measurements)
** Current wind speed in m/s (hover to see current wind gust speed)